sensor_id;sensor_type;location;lat;lon;timestamp;temperature;humidity
4209;DHT22;36320;48.860;2.380;2023-07-29T00:01:47;23.60;93.50
4209;DHT22;36320;48.860;2.380;2023-07-29T00:04:15;23.60;93.40
4209;DHT22;36320;48.860;2.380;2023-07-29T00:06:41;23.80;93.30
4209;DHT22;36320;48.860;2.380;2023-07-29T00:09:07;23.70;93.10
4209;DHT22;36320;48.860;2.380;2023-07-29T00:11:32;23.60;93.10
4209;DHT22;36320;48.860;2.380;2023-07-29T00:14:00;23.70;93.00
4209;DHT22;36320;48.860;2.380;2023-07-29T00:16:26;23.70;92.90
4209;DHT22;36320;48.860;2.380;2023-07-29T00:18:52;23.70;92.80
4209;DHT22;36320;48.860;2.380;2023-07-29T00:21:18;23.80;92.60
4209;DHT22;36320;48.860;2.380;2023-07-29T00:23:44;23.70;92.40
4209;DHT22;36320;48.860;2.380;2023-07-29T00:26:10;23.90;92.40
4209;DHT22;36320;48.860;2.380;2023-07-29T00:28:36;23.90;92.20
4209;DHT22;36320;48.860;2.380;2023-07-29T00:31:02;23.90;92.10
4209;DHT22;36320;48.860;2.380;2023-07-29T00:33:28;23.80;92.00
4209;DHT22;36320;48.860;2.380;2023-07-29T00:35:55;23.80;92.10
4209;DHT22;36320;48.860;2.380;2023-07-29T00:38:20;23.70;92.00
4209;DHT22;36320;48.860;2.380;2023-07-29T00:40:46;23.70;91.90
4209;DHT22;36320;48.860;2.380;2023-07-29T00:43:12;23.50;91.80
4209;DHT22;36320;48.860;2.380;2023-07-29T00:45:38;23.30;91.60
4209;DHT22;36320;48.860;2.380;2023-07-29T00:48:04;23.60;91.60
4209;DHT22;36320;48.860;2.380;2023-07-29T00:50:32;23.50;91.50
4209;DHT22;36320;48.860;2.380;2023-07-29T00:52:58;23.40;91.40
4209;DHT22;36320;48.860;2.380;2023-07-29T00:55:24;23.40;91.20
4209;DHT22;36320;48.860;2.380;2023-07-29T00:57:51;23.50;91.10
4209;DHT22;36320;48.860;2.380;2023-07-29T01:00:21;23.50;90.90
4209;DHT22;36320;48.860;2.380;2023-07-29T01:02:47;23.40;90.80
4209;DHT22;36320;48.860;2.380;2023-07-29T01:05:15;23.30;90.70
4209;DHT22;36320;48.860;2.380;2023-07-29T01:07:52;23.20;90.60
4209;DHT22;36320;48.860;2.380;2023-07-29T01:15:56;23.20;90.40
4209;DHT22;36320;48.860;2.380;2023-07-29T01:18:28;23.10;90.40
4209;DHT22;36320;48.860;2.380;2023-07-29T01:20:58;23.20;90.40
4209;DHT22;36320;48.860;2.380;2023-07-29T01:23:25;23.10;90.20
4209;DHT22;36320;48.860;2.380;2023-07-29T01:25:51;23.10;90.20
4209;DHT22;36320;48.860;2.380;2023-07-29T01:28:17;23.00;90.00
4209;DHT22;36320;48.860;2.380;2023-07-29T01:30:43;22.90;90.00
4209;DHT22;36320;48.860;2.380;2023-07-29T01:33:18;22.80;90.10
4209;DHT22;36320;48.860;2.380;2023-07-29T01:35:48;22.80;90.00
4209;DHT22;36320;48.860;2.380;2023-07-29T01:38:35;22.80;90.00
4209;DHT22;36320;48.860;2.380;2023-07-29T01:41:02;22.90;90.00
4209;DHT22;36320;48.860;2.380;2023-07-29T01:43:29;22.90;89.70
4209;DHT22;36320;48.860;2.380;2023-07-29T01:45:55;22.80;89.60
4209;DHT22;36320;48.860;2.380;2023-07-29T01:48:21;22.70;89.60
4209;DHT22;36320;48.860;2.380;2023-07-29T01:50:47;22.60;89.30
4209;DHT22;36320;48.860;2.380;2023-07-29T01:53:12;22.60;89.50
4209;DHT22;36320;48.860;2.380;2023-07-29T01:55:39;22.70;89.40
4209;DHT22;36320;48.860;2.380;2023-07-29T01:58:04;22.60;89.30
4209;DHT22;36320;48.860;2.380;2023-07-29T02:00:30;22.50;89.40
4209;DHT22;36320;48.860;2.380;2023-07-29T02:02:56;22.50;89.20
4209;DHT22;36320;48.860;2.380;2023-07-29T02:05:22;22.50;89.00
4209;DHT22;36320;48.860;2.380;2023-07-29T02:07:47;22.50;89.80
4209;DHT22;36320;48.860;2.380;2023-07-29T02:10:13;22.50;89.20
4209;DHT22;36320;48.860;2.380;2023-07-29T02:12:39;22.50;89.20
4209;DHT22;36320;48.860;2.380;2023-07-29T02:15:06;22.50;89.20
4209;DHT22;36320;48.860;2.380;2023-07-29T02:17:32;22.40;89.30
4209;DHT22;36320;48.860;2.380;2023-07-29T02:19:57;22.40;89.50
4209;DHT22;36320;48.860;2.380;2023-07-29T02:22:23;22.50;89.40
4209;DHT22;36320;48.860;2.380;2023-07-29T02:24:49;22.30;89.10
4209;DHT22;36320;48.860;2.380;2023-07-29T02:27:14;22.80;89.70
4209;DHT22;36320;48.860;2.380;2023-07-29T02:29:40;22.30;89.20
4209;DHT22;36320;48.860;2.380;2023-07-29T02:32:06;22.20;89.30
4209;DHT22;36320;48.860;2.380;2023-07-29T02:34:31;22.10;89.40
4209;DHT22;36320;48.860;2.380;2023-07-29T02:36:58;22.10;89.60
4209;DHT22;36320;48.860;2.380;2023-07-29T02:39:24;22.10;89.50
4209;DHT22;36320;48.860;2.380;2023-07-29T02:41:50;22.00;89.40
4209;DHT22;36320;48.860;2.380;2023-07-29T02:44:19;22.00;89.70
4209;DHT22;36320;48.860;2.380;2023-07-29T02:46:45;23.90;90.80
4209;DHT22;36320;48.860;2.380;2023-07-29T02:49:11;22.10;89.80
4209;DHT22;36320;48.860;2.380;2023-07-29T02:51:36;22.10;89.80
4209;DHT22;36320;48.860;2.380;2023-07-29T02:54:03;22.00;89.60
4209;DHT22;36320;48.860;2.380;2023-07-29T02:56:28;22.00;89.90
4209;DHT22;36320;48.860;2.380;2023-07-29T02:58:56;21.90;89.90
4209;DHT22;36320;48.860;2.380;2023-07-29T03:01:23;21.90;90.00
4209;DHT22;36320;48.860;2.380;2023-07-29T03:03:51;21.90;90.00
4209;DHT22;36320;48.860;2.380;2023-07-29T03:06:17;21.70;90.00
4209;DHT22;36320;48.860;2.380;2023-07-29T03:08:43;21.70;90.20
4209;DHT22;36320;48.860;2.380;2023-07-29T03:11:12;21.70;90.20
4209;DHT22;36320;48.860;2.380;2023-07-29T03:13:39;21.60;90.20
4209;DHT22;36320;48.860;2.380;2023-07-29T03:16:13;21.70;90.50
4209;DHT22;36320;48.860;2.380;2023-07-29T03:18:40;21.70;90.20
4209;DHT22;36320;48.860;2.380;2023-07-29T03:21:07;21.80;90.30
4209;DHT22;36320;48.860;2.380;2023-07-29T03:23:34;21.60;90.30
4209;DHT22;36320;48.860;2.380;2023-07-29T03:26:01;21.70;90.40
4209;DHT22;36320;48.860;2.380;2023-07-29T03:28:31;21.70;90.40
4209;DHT22;36320;48.860;2.380;2023-07-29T03:30:57;21.70;90.30
4209;DHT22;36320;48.860;2.380;2023-07-29T03:33:25;21.70;90.30
4209;DHT22;36320;48.860;2.380;2023-07-29T03:35:52;21.60;90.40
4209;DHT22;36320;48.860;2.380;2023-07-29T03:38:19;21.50;90.40
4209;DHT22;36320;48.860;2.380;2023-07-29T03:40:45;21.50;90.40
4209;DHT22;36320;48.860;2.380;2023-07-29T03:43:11;21.50;90.60
4209;DHT22;36320;48.860;2.380;2023-07-29T03:45:37;21.60;90.50
4209;DHT22;36320;48.860;2.380;2023-07-29T03:48:04;21.80;90.50
4209;DHT22;36320;48.860;2.380;2023-07-29T03:50:30;21.60;90.40
4209;DHT22;36320;48.860;2.380;2023-07-29T03:52:56;21.60;90.40
4209;DHT22;36320;48.860;2.380;2023-07-29T03:55:22;21.60;90.40
4209;DHT22;36320;48.860;2.380;2023-07-29T03:57:49;21.60;90.40
4209;DHT22;36320;48.860;2.380;2023-07-29T04:00:15;21.60;90.40
4209;DHT22;36320;48.860;2.380;2023-07-29T04:02:42;21.60;90.40
4209;DHT22;36320;48.860;2.380;2023-07-29T04:05:08;21.30;90.30
4209;DHT22;36320;48.860;2.380;2023-07-29T04:07:35;21.60;90.50
4209;DHT22;36320;48.860;2.380;2023-07-29T04:10:01;21.50;90.40
4209;DHT22;36320;48.860;2.380;2023-07-29T04:12:27;21.40;90.50
4209;DHT22;36320;48.860;2.380;2023-07-29T04:14:54;21.30;90.60
4209;DHT22;36320;48.860;2.380;2023-07-29T04:17:20;21.30;90.70
4209;DHT22;36320;48.860;2.380;2023-07-29T04:19:46;21.30;90.60
4209;DHT22;36320;48.860;2.380;2023-07-29T04:22:12;21.30;90.70
4209;DHT22;36320;48.860;2.380;2023-07-29T04:24:38;21.20;90.70
4209;DHT22;36320;48.860;2.380;2023-07-29T04:27:04;21.20;90.70
4209;DHT22;36320;48.860;2.380;2023-07-29T04:29:30;21.30;90.80
4209;DHT22;36320;48.860;2.380;2023-07-29T04:31:55;21.40;90.70
4209;DHT22;36320;48.860;2.380;2023-07-29T04:34:21;21.30;90.60
4209;DHT22;36320;48.860;2.380;2023-07-29T04:36:47;21.30;90.60
4209;DHT22;36320;48.860;2.380;2023-07-29T04:39:14;21.30;90.70
4209;DHT22;36320;48.860;2.380;2023-07-29T04:41:40;21.40;91.10
4209;DHT22;36320;48.860;2.380;2023-07-29T04:44:06;21.50;90.70
4209;DHT22;36320;48.860;2.380;2023-07-29T04:46:32;21.40;90.50
4209;DHT22;36320;48.860;2.380;2023-07-29T04:48:58;21.40;90.50
4209;DHT22;36320;48.860;2.380;2023-07-29T04:51:25;21.40;90.50
4209;DHT22;36320;48.860;2.380;2023-07-29T04:53:52;21.30;90.60
4209;DHT22;36320;48.860;2.380;2023-07-29T04:56:21;21.30;90.60
4209;DHT22;36320;48.860;2.380;2023-07-29T04:58:47;21.20;90.70
4209;DHT22;36320;48.860;2.380;2023-07-29T05:01:13;21.30;90.70
4209;DHT22;36320;48.860;2.380;2023-07-29T05:03:39;21.40;90.60
4209;DHT22;36320;48.860;2.380;2023-07-29T05:06:05;21.40;90.60
4209;DHT22;36320;48.860;2.380;2023-07-29T05:08:31;21.40;90.50
4209;DHT22;36320;48.860;2.380;2023-07-29T05:10:56;21.50;90.50
4209;DHT22;36320;48.860;2.380;2023-07-29T05:13:25;21.50;90.40
4209;DHT22;36320;48.860;2.380;2023-07-29T05:15:51;21.60;90.40
4209;DHT22;36320;48.860;2.380;2023-07-29T05:18:17;21.60;90.30
4209;DHT22;36320;48.860;2.380;2023-07-29T05:20:43;21.70;90.20
4209;DHT22;36320;48.860;2.380;2023-07-29T05:23:09;21.40;90.10
4209;DHT22;36320;48.860;2.380;2023-07-29T05:25:34;21.70;90.20
4209;DHT22;36320;48.860;2.380;2023-07-29T05:28:02;21.60;90.20
4209;DHT22;36320;48.860;2.380;2023-07-29T05:30:29;21.70;90.20
4209;DHT22;36320;48.860;2.380;2023-07-29T05:32:57;21.80;90.00
4209;DHT22;36320;48.860;2.380;2023-07-29T05:35:24;21.80;90.00
4209;DHT22;36320;48.860;2.380;2023-07-29T05:37:50;21.80;90.00
4209;DHT22;36320;48.860;2.380;2023-07-29T05:40:15;21.80;89.90
4209;DHT22;36320;48.860;2.380;2023-07-29T05:42:41;21.80;89.70
4209;DHT22;36320;48.860;2.380;2023-07-29T05:45:07;21.80;89.50
4209;DHT22;36320;48.860;2.380;2023-07-29T05:47:34;21.80;89.60
4209;DHT22;36320;48.860;2.380;2023-07-29T05:50:00;21.80;89.50
4209;DHT22;36320;48.860;2.380;2023-07-29T05:52:32;21.90;89.40
4209;DHT22;36320;48.860;2.380;2023-07-29T05:54:58;22.00;89.50
4209;DHT22;36320;48.860;2.380;2023-07-29T05:57:24;22.00;89.20
4209;DHT22;36320;48.860;2.380;2023-07-29T05:59:50;22.00;89.30
4209;DHT22;36320;48.860;2.380;2023-07-29T06:02:16;22.00;89.10
4209;DHT22;36320;48.860;2.380;2023-07-29T06:04:41;22.00;89.10
4209;DHT22;36320;48.860;2.380;2023-07-29T06:07:08;22.00;88.80
4209;DHT22;36320;48.860;2.380;2023-07-29T06:09:34;22.10;88.80
4209;DHT22;36320;48.860;2.380;2023-07-29T06:11:59;22.20;88.40
4209;DHT22;36320;48.860;2.380;2023-07-29T06:14:26;22.30;88.30
4209;DHT22;36320;48.860;2.380;2023-07-29T06:16:52;22.40;87.80
4209;DHT22;36320;48.860;2.380;2023-07-29T06:19:20;22.50;87.80
4209;DHT22;36320;48.860;2.380;2023-07-29T06:21:45;22.50;87.40
4209;DHT22;36320;48.860;2.380;2023-07-29T06:24:11;22.50;87.40
4209;DHT22;36320;48.860;2.380;2023-07-29T06:26:37;22.40;87.10
4209;DHT22;36320;48.860;2.380;2023-07-29T06:29:02;22.30;87.20
4209;DHT22;36320;48.860;2.380;2023-07-29T06:31:28;22.30;87.20
4209;DHT22;36320;48.860;2.380;2023-07-29T06:33:55;22.40;87.10
4209;DHT22;36320;48.860;2.380;2023-07-29T06:36:22;22.50;87.10
4209;DHT22;36320;48.860;2.380;2023-07-29T06:38:48;22.70;86.70
4209;DHT22;36320;48.860;2.380;2023-07-29T06:41:13;22.70;86.40
4209;DHT22;36320;48.860;2.380;2023-07-29T06:43:39;22.40;86.10
4209;DHT22;36320;48.860;2.380;2023-07-29T06:46:06;22.30;86.40
4209;DHT22;36320;48.860;2.380;2023-07-29T06:48:32;22.30;86.50
4209;DHT22;36320;48.860;2.380;2023-07-29T06:50:57;22.30;86.20
4209;DHT22;36320;48.860;2.380;2023-07-29T06:53:27;22.30;86.50
4209;DHT22;36320;48.860;2.380;2023-07-29T06:55:53;22.40;86.40
4209;DHT22;36320;48.860;2.380;2023-07-29T06:58:19;22.40;86.40
4209;DHT22;36320;48.860;2.380;2023-07-29T07:00:45;22.30;86.20
4209;DHT22;36320;48.860;2.380;2023-07-29T07:03:12;22.30;86.40
4209;DHT22;36320;48.860;2.380;2023-07-29T07:05:37;22.60;86.40
4209;DHT22;36320;48.860;2.380;2023-07-29T07:08:03;22.70;85.90
4209;DHT22;36320;48.860;2.380;2023-07-29T07:10:31;22.70;85.40
4209;DHT22;36320;48.860;2.380;2023-07-29T07:12:59;22.80;85.60
4209;DHT22;36320;48.860;2.380;2023-07-29T07:15:25;23.00;85.20
4209;DHT22;36320;48.860;2.380;2023-07-29T07:17:51;23.10;84.40
4209;DHT22;36320;48.860;2.380;2023-07-29T07:20:17;23.00;84.30
4209;DHT22;36320;48.860;2.380;2023-07-29T07:22:49;23.00;84.50
4209;DHT22;36320;48.860;2.380;2023-07-29T07:25:16;23.00;84.20
4209;DHT22;36320;48.860;2.380;2023-07-29T07:27:43;23.00;84.10
4209;DHT22;36320;48.860;2.380;2023-07-29T07:30:09;22.80;84.30
4209;DHT22;36320;48.860;2.380;2023-07-29T07:32:38;22.80;84.30
4209;DHT22;36320;48.860;2.380;2023-07-29T07:35:06;22.90;84.40
4209;DHT22;36320;48.860;2.380;2023-07-29T07:37:31;22.90;84.00
4209;DHT22;36320;48.860;2.380;2023-07-29T07:39:58;23.00;84.10
4209;DHT22;36320;48.860;2.380;2023-07-29T07:42:26;23.10;83.70
4209;DHT22;36320;48.860;2.380;2023-07-29T07:44:53;23.10;83.70
4209;DHT22;36320;48.860;2.380;2023-07-29T07:47:18;23.00;83.40
4209;DHT22;36320;48.860;2.380;2023-07-29T07:49:47;22.80;83.50
4209;DHT22;36320;48.860;2.380;2023-07-29T07:52:15;22.80;84.60
4209;DHT22;36320;48.860;2.380;2023-07-29T07:54:41;21.80;83.60
4209;DHT22;36320;48.860;2.380;2023-07-29T07:57:10;22.90;84.00
4209;DHT22;36320;48.860;2.380;2023-07-29T07:59:37;23.10;83.80
4209;DHT22;36320;48.860;2.380;2023-07-29T08:02:02;23.20;83.40
4209;DHT22;36320;48.860;2.380;2023-07-29T08:04:28;23.20;83.20
4209;DHT22;36320;48.860;2.380;2023-07-29T08:06:54;23.30;83.10
4209;DHT22;36320;48.860;2.380;2023-07-29T08:09:21;23.30;82.60
4209;DHT22;36320;48.860;2.380;2023-07-29T08:11:47;23.50;82.70
4209;DHT22;36320;48.860;2.380;2023-07-29T08:14:15;23.50;82.50
4209;DHT22;36320;48.860;2.380;2023-07-29T08:16:41;23.60;82.20
4209;DHT22;36320;48.860;2.380;2023-07-29T08:19:07;23.70;81.90
4209;DHT22;36320;48.860;2.380;2023-07-29T08:21:39;23.60;81.80
4209;DHT22;36320;48.860;2.380;2023-07-29T08:24:05;23.80;82.70
4209;DHT22;36320;48.860;2.380;2023-07-29T08:26:32;23.00;81.40
4209;DHT22;36320;48.860;2.380;2023-07-29T08:29:01;23.80;81.50
4209;DHT22;36320;48.860;2.380;2023-07-29T08:31:27;23.70;81.20
4209;DHT22;36320;48.860;2.380;2023-07-29T08:33:54;23.50;81.20
4209;DHT22;36320;48.860;2.380;2023-07-29T08:36:19;23.50;81.70
4209;DHT22;36320;48.860;2.380;2023-07-29T08:38:45;23.70;81.50
4209;DHT22;36320;48.860;2.380;2023-07-29T08:41:16;23.60;81.40
4209;DHT22;36320;48.860;2.380;2023-07-29T08:44:12;23.60;81.50
4209;DHT22;36320;48.860;2.380;2023-07-29T08:46:39;23.60;81.60
4209;DHT22;36320;48.860;2.380;2023-07-29T08:49:06;23.60;81.70
4209;DHT22;36320;48.860;2.380;2023-07-29T08:51:34;23.60;81.60
4209;DHT22;36320;48.860;2.380;2023-07-29T08:54:01;23.80;81.80
4209;DHT22;36320;48.860;2.380;2023-07-29T08:56:28;23.90;81.40
4209;DHT22;36320;48.860;2.380;2023-07-29T08:58:56;23.90;80.80
4209;DHT22;36320;48.860;2.380;2023-07-29T09:01:21;23.80;81.10
4209;DHT22;36320;48.860;2.380;2023-07-29T09:03:52;23.90;80.80
4209;DHT22;36320;48.860;2.380;2023-07-29T09:06:18;24.00;80.90
4209;DHT22;36320;48.860;2.380;2023-07-29T09:08:46;24.30;80.80
4209;DHT22;36320;48.860;2.380;2023-07-29T09:11:14;24.40;80.30
4209;DHT22;36320;48.860;2.380;2023-07-29T09:13:44;24.10;80.00
4209;DHT22;36320;48.860;2.380;2023-07-29T09:16:09;24.20;79.80
4209;DHT22;36320;48.860;2.380;2023-07-29T09:18:35;24.90;79.40
4209;DHT22;36320;48.860;2.380;2023-07-29T09:21:02;25.20;78.60
4209;DHT22;36320;48.860;2.380;2023-07-29T09:23:38;24.90;78.20
4209;DHT22;36320;48.860;2.380;2023-07-29T09:26:04;24.80;78.50
4209;DHT22;36320;48.860;2.380;2023-07-29T09:28:35;24.80;78.40
4209;DHT22;36320;48.860;2.380;2023-07-29T09:31:02;24.90;78.20
4209;DHT22;36320;48.860;2.380;2023-07-29T09:33:32;25.20;77.60
4209;DHT22;36320;48.860;2.380;2023-07-29T09:36:00;25.40;77.10
4209;DHT22;36320;48.860;2.380;2023-07-29T09:38:27;25.70;75.90
4209;DHT22;36320;48.860;2.380;2023-07-29T09:40:57;25.60;75.90
4209;DHT22;36320;48.860;2.380;2023-07-29T09:43:30;25.40;75.40
4209;DHT22;36320;48.860;2.380;2023-07-29T09:46:01;25.10;75.90
4209;DHT22;36320;48.860;2.380;2023-07-29T09:48:28;24.90;76.30
4209;DHT22;36320;48.860;2.380;2023-07-29T09:50:57;25.10;76.60
4209;DHT22;36320;48.860;2.380;2023-07-29T09:53:24;25.50;76.10
4209;DHT22;36320;48.860;2.380;2023-07-29T09:55:50;25.60;75.50
4209;DHT22;36320;48.860;2.380;2023-07-29T09:58:27;25.70;75.60
4209;DHT22;36320;48.860;2.380;2023-07-29T10:00:54;25.70;75.30
4209;DHT22;36320;48.860;2.380;2023-07-29T10:03:24;25.70;75.30
4209;DHT22;36320;48.860;2.380;2023-07-29T10:05:50;26.30;74.90
4209;DHT22;36320;48.860;2.380;2023-07-29T10:08:18;26.40;74.00
4209;DHT22;36320;48.860;2.380;2023-07-29T10:10:44;26.30;73.50
4209;DHT22;36320;48.860;2.380;2023-07-29T10:13:11;24.40;72.20
4209;DHT22;36320;48.860;2.380;2023-07-29T10:15:38;25.60;74.10
4209;DHT22;36320;48.860;2.380;2023-07-29T10:18:06;25.50;74.50
4209;DHT22;36320;48.860;2.380;2023-07-29T10:20:33;25.80;74.50
4209;DHT22;36320;48.860;2.380;2023-07-29T10:23:02;26.30;73.90
4209;DHT22;36320;48.860;2.380;2023-07-29T10:25:39;26.50;73.30
4209;DHT22;36320;48.860;2.380;2023-07-29T10:28:12;26.60;73.10
4209;DHT22;36320;48.860;2.380;2023-07-29T10:30:40;26.60;72.90
4209;DHT22;36320;48.860;2.380;2023-07-29T10:33:06;26.80;72.60
4209;DHT22;36320;48.860;2.380;2023-07-29T10:35:33;26.80;72.20
4209;DHT22;36320;48.860;2.380;2023-07-29T10:38:02;26.70;72.10
4209;DHT22;36320;48.860;2.380;2023-07-29T10:40:53;26.80;71.80
4209;DHT22;36320;48.860;2.380;2023-07-29T10:43:32;27.30;71.00
4209;DHT22;36320;48.860;2.380;2023-07-29T10:46:22;27.20;70.30
4209;DHT22;36320;48.860;2.380;2023-07-29T10:48:54;27.20;70.40
4209;DHT22;36320;48.860;2.380;2023-07-29T10:51:37;26.90;70.90
4209;DHT22;36320;48.860;2.380;2023-07-29T10:54:10;26.70;71.90
4209;DHT22;36320;48.860;2.380;2023-07-29T10:56:40;26.80;72.10
4209;DHT22;36320;48.860;2.380;2023-07-29T11:02:01;26.90;71.80
4209;DHT22;36320;48.860;2.380;2023-07-29T11:04:30;27.30;71.50
4209;DHT22;36320;48.860;2.380;2023-07-29T11:09:43;26.60;71.80
4209;DHT22;36320;48.860;2.380;2023-07-29T11:12:48;26.50;72.50
4209;DHT22;36320;48.860;2.380;2023-07-29T11:15:25;26.70;72.00
4209;DHT22;36320;48.860;2.380;2023-07-29T11:18:00;26.60;72.30
4209;DHT22;36320;48.860;2.380;2023-07-29T11:20:31;26.90;72.40
4209;DHT22;36320;48.860;2.380;2023-07-29T11:23:02;27.20;71.80
4209;DHT22;36320;48.860;2.380;2023-07-29T11:25:30;27.80;70.90
4209;DHT22;36320;48.860;2.380;2023-07-29T11:27:58;28.00;70.10
4209;DHT22;36320;48.860;2.380;2023-07-29T11:30:24;27.90;69.80
4209;DHT22;36320;48.860;2.380;2023-07-29T11:32:55;27.70;69.60
4209;DHT22;36320;48.860;2.380;2023-07-29T11:35:24;27.30;70.70
4209;DHT22;36320;48.860;2.380;2023-07-29T11:37:54;27.60;70.90
4209;DHT22;36320;48.860;2.380;2023-07-29T11:40:21;27.90;70.20
4209;DHT22;36320;48.860;2.380;2023-07-29T11:42:52;27.80;69.80
4209;DHT22;36320;48.860;2.380;2023-07-29T11:45:20;27.80;70.00
4209;DHT22;36320;48.860;2.380;2023-07-29T11:47:46;27.70;69.80
4209;DHT22;36320;48.860;2.380;2023-07-29T11:50:15;27.60;70.00
4209;DHT22;36320;48.860;2.380;2023-07-29T11:52:46;27.30;70.10
4209;DHT22;36320;48.860;2.380;2023-07-29T11:55:14;27.50;70.60
4209;DHT22;36320;48.860;2.380;2023-07-29T11:57:44;27.90;70.10
4209;DHT22;36320;48.860;2.380;2023-07-29T12:00:11;27.80;69.80
4209;DHT22;36320;48.860;2.380;2023-07-29T12:02:42;27.40;70.10
4209;DHT22;36320;48.860;2.380;2023-07-29T12:05:13;27.50;70.40
4209;DHT22;36320;48.860;2.380;2023-07-29T12:07:39;28.30;69.60
4209;DHT22;36320;48.860;2.380;2023-07-29T12:10:06;28.20;68.50
4209;DHT22;36320;48.860;2.380;2023-07-29T12:12:37;28.00;69.00
4209;DHT22;36320;48.860;2.380;2023-07-29T12:15:06;27.70;68.80
4209;DHT22;36320;48.860;2.380;2023-07-29T12:17:40;27.60;69.60
4209;DHT22;36320;48.860;2.380;2023-07-29T12:20:09;27.50;70.20
4209;DHT22;36320;48.860;2.380;2023-07-29T12:22:35;27.20;71.50
4209;DHT22;36320;48.860;2.380;2023-07-29T12:25:01;26.90;72.40
4209;DHT22;36320;48.860;2.380;2023-07-29T12:27:30;26.70;73.40
4209;DHT22;36320;48.860;2.380;2023-07-29T12:29:58;26.60;74.30
4209;DHT22;36320;48.860;2.380;2023-07-29T12:32:29;26.70;74.80
4209;DHT22;36320;48.860;2.380;2023-07-29T12:34:55;27.00;74.70
4209;DHT22;36320;48.860;2.380;2023-07-29T12:37:31;27.20;74.30
4209;DHT22;36320;48.860;2.380;2023-07-29T12:39:57;27.20;73.70
4209;DHT22;36320;48.860;2.380;2023-07-29T12:42:23;27.50;73.50
4209;DHT22;36320;48.860;2.380;2023-07-29T12:44:49;27.60;73.00
4209;DHT22;36320;48.860;2.380;2023-07-29T12:47:15;27.50;72.80
4209;DHT22;36320;48.860;2.380;2023-07-29T12:49:40;27.20;73.40
4209;DHT22;36320;48.860;2.380;2023-07-29T12:52:07;27.00;73.70
4209;DHT22;36320;48.860;2.380;2023-07-29T12:54:33;27.20;73.80
4209;DHT22;36320;48.860;2.380;2023-07-29T12:56:59;27.30;73.50
4209;DHT22;36320;48.860;2.380;2023-07-29T12:59:25;27.30;73.60
4209;DHT22;36320;48.860;2.380;2023-07-29T13:01:54;27.30;73.20
4209;DHT22;36320;48.860;2.380;2023-07-29T13:04:20;27.40;73.00
4209;DHT22;36320;48.860;2.380;2023-07-29T13:06:47;28.30;72.30
4209;DHT22;36320;48.860;2.380;2023-07-29T13:09:13;28.60;70.80
4209;DHT22;36320;48.860;2.380;2023-07-29T13:11:40;28.60;70.30
4209;DHT22;36320;48.860;2.380;2023-07-29T13:14:07;28.50;69.50
4209;DHT22;36320;48.860;2.380;2023-07-29T13:16:33;28.50;69.70
4209;DHT22;36320;48.860;2.380;2023-07-29T13:18:58;28.60;69.30
4209;DHT22;36320;48.860;2.380;2023-07-29T13:21:24;28.70;69.30
4209;DHT22;36320;48.860;2.380;2023-07-29T13:23:51;28.70;68.80
4209;DHT22;36320;48.860;2.380;2023-07-29T13:26:21;28.70;69.00
4209;DHT22;36320;48.860;2.380;2023-07-29T13:28:48;28.90;68.40
4209;DHT22;36320;48.860;2.380;2023-07-29T13:31:15;29.00;67.80
4209;DHT22;36320;48.860;2.380;2023-07-29T13:33:42;29.40;66.60
4209;DHT22;36320;48.860;2.380;2023-07-29T13:36:09;29.20;66.00
4209;DHT22;36320;48.860;2.380;2023-07-29T13:38:36;29.20;66.40
4209;DHT22;36320;48.860;2.380;2023-07-29T13:41:01;29.30;66.20
4209;DHT22;36320;48.860;2.380;2023-07-29T13:43:27;29.50;66.00
4209;DHT22;36320;48.860;2.380;2023-07-29T13:45:56;29.30;65.80
4209;DHT22;36320;48.860;2.380;2023-07-29T13:48:24;29.10;65.80
4209;DHT22;36320;48.860;2.380;2023-07-29T13:50:50;28.90;65.40
4209;DHT22;36320;48.860;2.380;2023-07-29T13:53:18;28.60;65.50
4209;DHT22;36320;48.860;2.380;2023-07-29T13:55:43;28.70;65.50
4209;DHT22;36320;48.860;2.380;2023-07-29T13:58:13;28.90;65.00
4209;DHT22;36320;48.860;2.380;2023-07-29T14:00:40;28.90;65.00
4209;DHT22;36320;48.860;2.380;2023-07-29T14:03:07;28.80;64.80
4209;DHT22;36320;48.860;2.380;2023-07-29T14:05:34;28.90;64.70
4209;DHT22;36320;48.860;2.380;2023-07-29T14:08:01;29.30;64.00
4209;DHT22;36320;48.860;2.380;2023-07-29T14:10:28;29.40;63.10
4209;DHT22;36320;48.860;2.380;2023-07-29T14:12:55;29.60;62.10
4209;DHT22;36320;48.860;2.380;2023-07-29T14:15:22;30.00;61.60
4209;DHT22;36320;48.860;2.380;2023-07-29T14:17:49;30.30;61.10
4209;DHT22;36320;48.860;2.380;2023-07-29T14:20:18;30.20;60.00
4209;DHT22;36320;48.860;2.380;2023-07-29T14:22:45;29.80;59.80
4209;DHT22;36320;48.860;2.380;2023-07-29T14:25:11;29.50;59.80
4209;DHT22;36320;48.860;2.380;2023-07-29T14:27:37;29.40;60.70
4209;DHT22;36320;48.860;2.380;2023-07-29T14:30:06;29.60;61.10
4209;DHT22;36320;48.860;2.380;2023-07-29T14:32:33;30.00;60.60
4209;DHT22;36320;48.860;2.380;2023-07-29T14:34:58;30.20;59.90
4209;DHT22;36320;48.860;2.380;2023-07-29T14:37:32;30.50;60.00
4209;DHT22;36320;48.860;2.380;2023-07-29T14:39:58;30.70;59.40
4209;DHT22;36320;48.860;2.380;2023-07-29T14:42:24;30.80;59.30
4209;DHT22;36320;48.860;2.380;2023-07-29T14:44:50;30.60;60.00
4209;DHT22;36320;48.860;2.380;2023-07-29T14:47:15;30.60;59.50
4209;DHT22;36320;48.860;2.380;2023-07-29T14:49:43;30.60;59.70
4209;DHT22;36320;48.860;2.380;2023-07-29T14:52:09;30.20;59.90
4209;DHT22;36320;48.860;2.380;2023-07-29T14:54:35;29.70;60.90
4209;DHT22;36320;48.860;2.380;2023-07-29T14:57:00;29.50;61.80
4209;DHT22;36320;48.860;2.380;2023-07-29T14:59:29;29.20;62.40
4209;DHT22;36320;48.860;2.380;2023-07-29T15:01:57;28.90;62.70
4209;DHT22;36320;48.860;2.380;2023-07-29T15:04:23;28.70;62.80
4209;DHT22;36320;48.860;2.380;2023-07-29T15:06:50;28.50;63.80
4209;DHT22;36320;48.860;2.380;2023-07-29T15:09:17;28.30;64.70
4209;DHT22;36320;48.860;2.380;2023-07-29T15:11:44;28.20;65.20
4209;DHT22;36320;48.860;2.380;2023-07-29T15:14:11;28.10;65.70
4209;DHT22;36320;48.860;2.380;2023-07-29T15:16:38;27.80;66.60
4209;DHT22;36320;48.860;2.380;2023-07-29T15:19:05;27.70;67.70
4209;DHT22;36320;48.860;2.380;2023-07-29T15:21:30;26.90;73.30
4209;DHT22;36320;48.860;2.380;2023-07-29T15:23:58;26.60;76.50
4209;DHT22;36320;48.860;2.380;2023-07-29T15:26:24;26.80;77.70
4209;DHT22;36320;48.860;2.380;2023-07-29T15:28:51;28.50;78.20
4209;DHT22;36320;48.860;2.380;2023-07-29T15:31:17;33.00;68.10
4209;DHT22;36320;48.860;2.380;2023-07-29T15:33:43;34.40;61.10
4209;DHT22;36320;48.860;2.380;2023-07-29T15:36:10;32.60;61.70
4209;DHT22;36320;48.860;2.380;2023-07-29T15:38:35;32.30;62.70
4209;DHT22;36320;48.860;2.380;2023-07-29T15:41:01;33.80;61.30
4209;DHT22;36320;48.860;2.380;2023-07-29T15:43:27;32.50;60.70
4209;DHT22;36320;48.860;2.380;2023-07-29T15:45:56;30.80;64.10
4209;DHT22;36320;48.860;2.380;2023-07-29T15:48:22;29.50;66.90
4209;DHT22;36320;48.860;2.380;2023-07-29T15:50:49;28.80;69.20
4209;DHT22;36320;48.860;2.380;2023-07-29T15:53:14;27.90;71.80
4209;DHT22;36320;48.860;2.380;2023-07-29T15:55:40;26.50;75.00
4209;DHT22;36320;48.860;2.380;2023-07-29T15:58:06;25.80;79.70